| time (UTC) | temp C | wind direction | speed KPH | gust KPH | rain 1hr cm | rain 24hr cm | rain mn cm | humidity % | barometer mb |
| 20260506012514 | 25 | 151 | 0.0 | 1.6 | 0.00 | 0.00 | 0.00 | 78 | 999.3 |
| 20260506012015 | 26 | 151 | 0.0 | 3.2 | 0.00 | 0.00 | 0.00 | 78 | 999.4 |
| 20260506011517 | 26 | 320 | 0.0 | 8.0 | 0.00 | 0.00 | 0.00 | 78 | 999.3 |
| 20260506011018 | 26 | 299 | 3.2 | 8.0 | 0.00 | 0.00 | 0.00 | 78 | 999.0 |
| 20260506010514 | 26 | 195 | 1.6 | 8.0 | 0.00 | 0.00 | 0.00 | 77 | 998.7 |
| 20260506010014 | 26 | 239 | 1.6 | 6.4 | 0.00 | 0.00 | 0.00 | 77 | 998.6 |
| 20260506005513 | 26 | 231 | 1.6 | 8.0 | 0.00 | 0.00 | 0.00 | 77 | 998.6 |
| 20260506005013 | 26 | 249 | 1.6 | 9.7 | 0.00 | 0.00 | 0.00 | 77 | 998.6 |
| 20260506004529 | 26 | 214 | 1.6 | 9.7 | 0.00 | 0.00 | 0.00 | 76 | 998.5 |
| 20260506004014 | 26 | 198 | 1.6 | 9.7 | 0.00 | 0.00 | 0.00 | 76 | 998.5 |
| 20260506003512 | 26 | 181 | 1.6 | 8.0 | 0.00 | 0.00 | 0.00 | 76 | 998.5 |
| 20260506003113 | 26 | 223 | 1.6 | 8.0 | 0.00 | 0.00 | 0.00 | 75 | 998.5 |
| 20260506002511 | 27 | 163 | 1.6 | 11.3 | 0.00 | 0.00 | 0.00 | 75 | 998.5 |
| 20260506002012 | 27 | 143 | 4.8 | 12.9 | 0.00 | 0.00 | 0.00 | 74 | 998.5 |
| 20260506001511 | 27 | 237 | 1.6 | 12.9 | 0.00 | 0.00 | 0.00 | 74 | 998.4 |
| 20260506001012 | 27 | 247 | 1.6 | 12.9 | 0.00 | 0.00 | 0.00 | 75 | 998.3 |
| 20260506000510 | 27 | 200 | 1.6 | 14.5 | 0.00 | 0.00 | 0.00 | 75 | 998.4 |
| 20260506000011 | 27 | 248 | 4.8 | 14.5 | 0.00 | 0.00 | 0.00 | 74 | 998.4 |
| 20260505235510 | 27 | 214 | 3.2 | 11.3 | 0.00 | 0.00 | 0.00 | 74 | 998.3 |
| 20260505235010 | 27 | 205 | 1.6 | 9.7 | 0.00 | 0.00 | 0.00 | 73 | 998.3 |
| 20260505234513 | 27 | 245 | 1.6 | 11.3 | 0.00 | 0.00 | 0.00 | 73 | 998.5 |
| 20260505234014 | 27 | 148 | 3.2 | 11.3 | 0.00 | 0.00 | 0.00 | 72 | 998.4 |
| 20260505233513 | 28 | 242 | 1.6 | 16.1 | 0.00 | 0.00 | 0.00 | 72 | 998.3 |
| 20260505233010 | 28 | 269 | 4.8 | 16.1 | 0.00 | 0.00 | 0.00 | 71 | 998.4 |
| 20260505232509 | 28 | 226 | 1.6 | 12.9 | 0.00 | 0.00 | 0.00 | 71 | 998.4 |
| 20260505232009 | 28 | 203 | 4.8 | 12.9 | 0.00 | 0.00 | 0.00 | 70 | 998.3 |
| 20260505231513 | 28 | 203 | 1.6 | 17.7 | 0.00 | 0.00 | 0.00 | 69 | 998.2 |
| 20260505231009 | 28 | 169 | 6.4 | 17.7 | 0.00 | 0.00 | 0.00 | 69 | 998.2 |
| 20260505230509 | 29 | 214 | 1.6 | 12.9 | 0.00 | 0.00 | 0.00 | 68 | 998.1 |
| 20260505230011 | 30 | 193 | 4.8 | 17.7 | 0.00 | 0.00 | 0.00 | 67 | 998.1 |
| 20260505225508 | 30 | 151 | 6.4 | 17.7 | 0.00 | 0.00 | 0.00 | 66 | 998.0 |
| 20260505225009 | 30 | 168 | 4.8 | 14.5 | 0.00 | 0.00 | 0.00 | 66 | 997.8 |
| 20260505224509 | 30 | 228 | 6.4 | 14.5 | 0.00 | 0.00 | 0.00 | 65 | 997.8 |
| 20260505224007 | 30 | 36 | 1.6 | 16.1 | 0.00 | 0.00 | 0.00 | 66 | 997.8 |
| 20260505223507 | 31 | 233 | 6.4 | 16.1 | 0.00 | 0.00 | 0.00 | 64 | 997.8 |
| 20260505223008 | 31 | 236 | 8.0 | 16.1 | 0.00 | 0.00 | 0.00 | 64 | 997.7 |
| 20260505222509 | 31 | 228 | 6.4 | 14.5 | 0.00 | 0.00 | 0.00 | 64 | 997.7 |
| 20260505222007 | 31 | 184 | 4.8 | 17.7 | 0.00 | 0.00 | 0.00 | 63 | 997.8 |
| 20260505221507 | 31 | 234 | 9.7 | 17.7 | 0.00 | 0.00 | 0.00 | 62 | 997.7 |
| 20260505221008 | 31 | 217 | 1.6 | 16.1 | 0.00 | 0.00 | 0.00 | 62 | 997.7 |
| 20260505220507 | 31 | 233 | 3.2 | 12.9 | 0.00 | 0.00 | 0.00 | 62 | 997.7 |
| 20260505220016 | 31 | 181 | 3.2 | 12.9 | 0.00 | 0.00 | 0.00 | 62 | 998.0 |
| 20260505215506 | 31 | 187 | 1.6 | 19.3 | 0.00 | 0.00 | 0.00 | 62 | 997.7 |
| 20260505215005 | 31 | 237 | 11.3 | 19.3 | 0.00 | 0.00 | 0.00 | 58 | 997.7 |
| 20260505214505 | 31 | 199 | 4.8 | 12.9 | 0.00 | 0.00 | 0.00 | 61 | 997.7 |
| 20260505214005 | 31 | 203 | 4.8 | 12.9 | 0.00 | 0.00 | 0.00 | 61 | 997.7 |
| 20260505213503 | 31 | 233 | 1.6 | 11.3 | 0.00 | 0.00 | 0.00 | 62 | 997.7 |
| 20260505213002 | 31 | 219 | 3.2 | 17.7 | 0.00 | 0.00 | 0.00 | 61 | 997.9 |
| 20260505212503 | 31 | 205 | 8.0 | 17.7 | 0.00 | 0.00 | 0.00 | 59 | 998.0 |
| 20260505212002 | 31 | 160 | 4.8 | 16.1 | 0.00 | 0.00 | 0.00 | 59 | 997.9 |
| 20260505211502 | 31 | 288 | 8.0 | 17.7 | 0.00 | 0.00 | 0.00 | 60 | 998.0 |
| 20260505211103 | 31 | 172 | 6.4 | 17.7 | 0.00 | 0.00 | 0.00 | 60 | 998.2 |
| 20260505210600 | 31 | 233 | 6.4 | 17.7 | 0.00 | 0.00 | 0.00 | 61 | 998.4 |
| 20260505210059 | 31 | 219 | 8.0 | 17.7 | 0.00 | 0.00 | 0.00 | 59 | 998.4 |
| 20260505205600 | 31 | 244 | 4.8 | 17.7 | 0.00 | 0.00 | 0.00 | 60 | 998.3 |
| 20260505205100 | 31 | 238 | 4.8 | 17.7 | 0.00 | 0.00 | 0.00 | 60 | 998.2 |
| 20260505204603 | 31 | 271 | 4.8 | 12.9 | 0.00 | 0.00 | 0.00 | 61 | 998.3 |
| 20260505204056 | 31 | 193 | 3.2 | 16.1 | 0.00 | 0.00 | 0.00 | 61 | 998.5 |
| 20260505203556 | 31 | 222 | 6.4 | 16.1 | 0.00 | 0.00 | 0.00 | 61 | 998.7 |
| 20260505203056 | 31 | 195 | 4.8 | 20.9 | 0.00 | 0.00 | 0.00 | 62 | 998.6 |
| 20260505202554 | 31 | 201 | 9.7 | 20.9 | 0.00 | 0.00 | 0.00 | 61 | 998.8 |
| 20260505202052 | 30 | 207 | 8.0 | 17.7 | 0.00 | 0.00 | 0.00 | 63 | 998.8 |
| 20260505201551 | 30 | 231 | 6.4 | 20.9 | 0.00 | 0.00 | 0.00 | 64 | 998.8 |
| 20260505201050 | 30 | 203 | 4.8 | 20.9 | 0.00 | 0.00 | 0.00 | 64 | 998.8 |
| 20260505200550 | 30 | 154 | 4.8 | 17.7 | 0.00 | 0.00 | 0.00 | 64 | 999.0 |
| 20260505200049 | 30 | 235 | 6.4 | 25.7 | 0.00 | 0.00 | 0.00 | 65 | 999.0 |
| 20260505195549 | 30 | 230 | 8.0 | 19.3 | 0.00 | 0.00 | 0.00 | 65 | 998.8 |
| 20260505195048 | 30 | 263 | 9.7 | 19.3 | 0.00 | 0.00 | 0.00 | 63 | 999.0 |
| 20260505194548 | 30 | 231 | 8.0 | 16.1 | 0.00 | 0.00 | 0.00 | 64 | 998.9 |
| 20260505194048 | 30 | 219 | 4.8 | 20.9 | 0.00 | 0.00 | 0.00 | 66 | 999.0 |
| 20260505193547 | 30 | 316 | 6.4 | 20.9 | 0.00 | 0.00 | 0.00 | 64 | 999.1 |
| 20260505193049 | 30 | 229 | 9.7 | 19.3 | 0.00 | 0.00 | 0.00 | 65 | 999.2 |
| 20260505192546 | 30 | 214 | 8.0 | 14.5 | 0.00 | 0.00 | 0.00 | 64 | 999.2 |
| 20260505192044 | 29 | 266 | 4.8 | 17.7 | 0.00 | 0.00 | 0.00 | 67 | 999.2 |
| 20260505191554 | 29 | 235 | 6.4 | 17.7 | 0.00 | 0.00 | 0.00 | 66 | 999.2 |
| 20260505191043 | 29 | 219 | 3.2 | 20.9 | 0.00 | 0.00 | 0.00 | 67 | 999.2 |
| 20260505190543 | 28 | 259 | 6.4 | 20.9 | 0.00 | 0.00 | 0.00 | 67 | 999.3 |
| 20260505190044 | 28 | 205 | 4.8 | 19.3 | 0.00 | 0.00 | 0.00 | 67 | 999.5 |
| 20260505185539 | 28 | 209 | 6.4 | 19.3 | 0.00 | 0.00 | 0.00 | 66 | 999.4 |
| 20260505185039 | 28 | 206 | 9.7 | 20.9 | 0.00 | 0.00 | 0.00 | 68 | 999.4 |
| 20260505184539 | 28 | 270 | 11.3 | 25.7 | 0.00 | 0.00 | 0.00 | 67 | 999.4 |
| 20260505184039 | 28 | 305 | 9.7 | 25.7 | 0.00 | 0.00 | 0.00 | 67 | 999.5 |
| 20260505183538 | 28 | 174 | 9.7 | 19.3 | 0.00 | 0.00 | 0.00 | 67 | 999.6 |
| 20260505183037 | 28 | 329 | 6.4 | 17.7 | 0.00 | 0.00 | 0.00 | 68 | 999.7 |
| 20260505182536 | 28 | 242 | 9.7 | 20.9 | 0.00 | 0.00 | 0.00 | 68 | 999.8 |
| 20260505182040 | 28 | 239 | 8.0 | 20.9 | 0.00 | 0.00 | 0.00 | 68 | 999.8 |
| 20260505181534 | 28 | 311 | 6.4 | 17.7 | 0.00 | 0.00 | 0.00 | 69 | 999.8 |
| 20260505181034 | 27 | 311 | 6.4 | 19.3 | 0.00 | 0.00 | 0.00 | 71 | 999.8 |
| 20260505180533 | 27 | 219 | 8.0 | 19.3 | 0.00 | 0.00 | 0.00 | 70 | 999.9 |
| 20260505180044 | 27 | 192 | 6.4 | 16.1 | 0.00 | 0.00 | 0.00 | 70 | 999.9 |
| 20260505175531 | 27 | 248 | 8.0 | 16.1 | 0.00 | 0.00 | 0.00 | 70 | 999.9 |
| 20260505175033 | 27 | 283 | 4.8 | 19.3 | 0.00 | 0.00 | 0.00 | 71 | 1000.0 |
| 20260505174537 | 27 | 305 | 4.8 | 19.3 | 0.00 | 0.00 | 0.00 | 71 | 999.9 |
| 20260505174028 | 27 | 342 | 9.7 | 24.1 | 0.00 | 0.00 | 0.00 | 70 | 999.7 |
| 20260505173528 | 27 | 284 | 6.4 | 24.1 | 0.00 | 0.00 | 0.00 | 71 | 999.7 |
| 20260505173027 | 27 | 238 | 9.7 | 22.5 | 0.00 | 0.00 | 0.00 | 71 | 999.6 |
| 20260505172529 | 27 | 172 | 8.0 | 22.5 | 0.00 | 0.00 | 0.00 | 72 | 999.6 |
| 20260505172024 | 26 | 196 | 9.7 | 20.9 | 0.00 | 0.00 | 0.00 | 72 | 999.7 |
| 20260505171530 | 26 | 263 | 9.7 | 20.9 | 0.00 | 0.00 | 0.00 | 74 | 999.8 |
| 20260505171022 | 26 | 224 | 8.0 | 20.9 | 0.00 | 0.00 | 0.00 | 74 | 999.7 |
| 20260505170520 | 26 | 224 | 6.4 | 22.5 | 0.00 | 0.00 | 0.00 | 75 | 1000.0 |
| 20260505170025 | 26 | 206 | 8.0 | 24.1 | 0.00 | 0.00 | 0.00 | 75 | 999.9 |
| 20260505165523 | 25 | 192 | 8.0 | 25.7 | 0.00 | 0.00 | 0.00 | 75 | 999.9 |
| 20260505165019 | 25 | 237 | 8.0 | 25.7 | 0.00 | 0.00 | 0.00 | 76 | 999.8 |
| 20260505164520 | 25 | 237 | 11.3 | 25.7 | 0.00 | 0.00 | 0.00 | 74 | 999.8 |
| 20260505164020 | 25 | 254 | 9.7 | 24.1 | 0.00 | 0.00 | 0.00 | 75 | 999.6 |
| 20260505163518 | 25 | 265 | 8.0 | 25.7 | 0.00 | 0.00 | 0.00 | 75 | 999.7 |
| 20260505163021 | 25 | 239 | 11.3 | 25.7 | 0.00 | 0.00 | 0.00 | 75 | 999.7 |
| 20260505162516 | 25 | 243 | 9.7 | 20.9 | 0.00 | 0.00 | 0.00 | 76 | 999.8 |
| 20260505162014 | 25 | 225 | 9.7 | 20.9 | 0.00 | 0.00 | 0.00 | 77 | 999.9 |
| 20260505161514 | 25 | 219 | 8.0 | 29.0 | 0.00 | 0.00 | 0.00 | 77 | 999.8 |
| 20260505161012 | 24 | 228 | 9.7 | 29.0 | 0.00 | 0.00 | 0.00 | 78 | 1000.0 |
| 20260505160512 | 24 | 184 | 11.3 | 22.5 | 0.00 | 0.00 | 0.00 | 77 | 999.8 |
| 20260505153007 | 23 | 233 | 6.4 | 24.1 | 0.00 | 0.00 | 0.00 | 80 | 1000.0 |
| 20260505152506 | 23 | 218 | 9.7 | 22.5 | 0.00 | 0.00 | 0.00 | 80 | 999.9 |
| 20260505152006 | 23 | 245 | 11.3 | 22.5 | 0.00 | 0.00 | 0.00 | 80 | 999.9 |
| 20260505151505 | 23 | 248 | 11.3 | 22.5 | 0.00 | 0.00 | 0.00 | 80 | 999.9 |
| 20260505151004 | 23 | 240 | 9.7 | 22.5 | 0.00 | 0.00 | 0.00 | 80 | 1000.0 |
| 20260505150505 | 23 | 256 | 12.9 | 22.5 | 0.00 | 0.00 | 0.00 | 80 | 1000.0 |
| 20260505140555 | 22 | 240 | 11.3 | 24.1 | 0.00 | 0.00 | 0.00 | 83 | 999.8 |
| 20260505124546 | 20 | 253 | 8.0 | 19.3 | 0.00 | 0.00 | 0.00 | 88 | 999.2 |
| 20260505124045 | 20 | 232 | 11.3 | 19.3 | 0.00 | 0.00 | 0.00 | 88 | 999.2 |
| 20260505123545 | 20 | 250 | 8.0 | 17.7 | 0.00 | 0.00 | 0.00 | 88 | 999.2 |
| 20260505123103 | 20 | 228 | 4.8 | 17.7 | 0.00 | 0.00 | 0.00 | 88 | 999.2 |
| 20260505122544 | 20 | 239 | 8.0 | 17.7 | 0.00 | 0.00 | 0.00 | 88 | 998.9 |
| 20260505122043 | 20 | 219 | 9.7 | 17.7 | 0.00 | 0.00 | 0.00 | 88 | 999.1 |
| 20260505121542 | 20 | 191 | 8.0 | 17.7 | 0.00 | 0.00 | 0.00 | 89 | 998.7 |
| 20260505121042 | 20 | 279 | 8.0 | 17.7 | 0.00 | 0.00 | 0.00 | 89 | 998.7 |
| 20260505120542 | 20 | 218 | 6.4 | 20.9 | 0.00 | 0.00 | 0.00 | 88 | 998.8 |
| 20260505120045 | 20 | 231 | 6.4 | 17.7 | 0.00 | 0.00 | 0.00 | 88 | 998.7 |
| 20260505115542 | 20 | 153 | 3.2 | 17.7 | 0.00 | 0.00 | 0.00 | 88 | 998.8 |
| 20260505115040 | 20 | 291 | 6.4 | 20.9 | 0.00 | 0.00 | 0.00 | 88 | 998.8 |
| 20260505114558 | 20 | 256 | 8.0 | 20.9 | 0.00 | 0.00 | 0.00 | 88 | 998.7 |
| 20260505114039 | 20 | 245 | 8.0 | 19.3 | 0.00 | 0.00 | 0.00 | 88 | 998.6 |
| 20260505113541 | 20 | 234 | 6.4 | 17.7 | 0.00 | 0.00 | 0.00 | 88 | 998.6 |
| 20260505113040 | 20 | 210 | 9.7 | 19.3 | 0.00 | 0.00 | 0.00 | 88 | 998.7 |
| 20260505112538 | 20 | 215 | 9.7 | 22.5 | 0.00 | 0.00 | 0.00 | 89 | 998.6 |
| 20260505112037 | 20 | 212 | 9.7 | 22.5 | 0.00 | 0.00 | 0.00 | 88 | 998.7 |
| 20260505111553 | 20 | 268 | 4.8 | 16.1 | 0.00 | 0.00 | 0.00 | 88 | 998.4 |
| 20260505111039 | 20 | 227 | 6.4 | 19.3 | 0.00 | 0.00 | 0.00 | 88 | 998.5 |
| 20260505110536 | 20 | 166 | 8.0 | 19.3 | 0.00 | 0.00 | 0.00 | 88 | 998.4 |
| 20260505102032 | 20 | 212 | 8.0 | 20.9 | 0.00 | 0.00 | 0.00 | 87 | 998.6 |
| 20260505101534 | 20 | 210 | 3.2 | 16.1 | 0.00 | 0.00 | 0.00 | 87 | 998.6 |
| 20260505101031 | 20 | 226 | 6.4 | 16.1 | 0.00 | 0.00 | 0.00 | 87 | 998.6 |
| 20260505100530 | 20 | 226 | 3.2 | 20.9 | 0.00 | 0.00 | 0.00 | 87 | 998.5 |
| 20260505100034 | 20 | 247 | 8.0 | 20.9 | 0.00 | 0.00 | 0.00 | 87 | 998.4 |
| 20260505095532 | 20 | 154 | 4.8 | 22.5 | 0.00 | 0.00 | 0.00 | 87 | 998.5 |
| 20260505095028 | 20 | 210 | 6.4 | 22.5 | 0.00 | 0.00 | 0.00 | 87 | 998.6 |
| 20260505094529 | 20 | 219 | 3.2 | 19.3 | 0.00 | 0.00 | 0.00 | 87 | 998.7 |
| 20260505094030 | 20 | 146 | 8.0 | 19.3 | 0.00 | 0.00 | 0.00 | 87 | 998.7 |
| 20260505093527 | 20 | 155 | 3.2 | 16.1 | 0.00 | 0.00 | 0.00 | 87 | 998.8 |
| 20260505093029 | 20 | 217 | 6.4 | 17.7 | 0.00 | 0.00 | 0.00 | 87 | 998.9 |
| 20260505092527 | 20 | 189 | 8.0 | 17.7 | 0.00 | 0.00 | 0.00 | 87 | 999.0 |
| 20260505092027 | 20 | 184 | 6.4 | 20.9 | 0.00 | 0.00 | 0.00 | 87 | 998.9 |
| 20260505091532 | 20 | 217 | 6.4 | 20.9 | 0.00 | 0.00 | 0.00 | 87 | 998.8 |
| 20260505091027 | 20 | 225 | 4.8 | 16.1 | 0.00 | 0.00 | 0.00 | 87 | 998.9 |
| 20260505090525 | 20 | 211 | 3.2 | 14.5 | 0.00 | 0.00 | 0.00 | 87 | 998.9 |
| 20260505090030 | 20 | 217 | 6.4 | 14.5 | 0.00 | 0.00 | 0.00 | 87 | 999.0 |
| 20260505085526 | 20 | 236 | 6.4 | 19.3 | 0.00 | 0.00 | 0.00 | 87 | 998.7 |
| 20260505085025 | 20 | 184 | 8.0 | 19.3 | 0.00 | 0.00 | 0.00 | 87 | 998.9 |
| 20260505084525 | 20 | 238 | 8.0 | 16.1 | 0.00 | 0.00 | 0.00 | 87 | 998.8 |
| 20260505084024 | 20 | 201 | 3.2 | 14.5 | 0.00 | 0.00 | 0.00 | 87 | 998.9 |
| 20260505083524 | 20 | 226 | 4.8 | 20.9 | 0.00 | 0.00 | 0.00 | 87 | 998.7 |
| 20260505083027 | 20 | 192 | 8.0 | 20.9 | 0.00 | 0.00 | 0.00 | 87 | 998.7 |
| 20260505082524 | 20 | 221 | 6.4 | 16.1 | 0.00 | 0.00 | 0.00 | 87 | 999.0 |
| 20260505082022 | 20 | 261 | 4.8 | 14.5 | 0.00 | 0.00 | 0.00 | 87 | 998.9 |
| 20260505081524 | 20 | 204 | 4.8 | 19.3 | 0.00 | 0.00 | 0.00 | 87 | 999.0 |
| 20260505081023 | 20 | 244 | 4.8 | 19.3 | 0.00 | 0.00 | 0.00 | 87 | 999.0 |
| 20260505080520 | 20 | 181 | 3.2 | 9.7 | 0.00 | 0.00 | 0.00 | 87 | 999.2 |
| 20260505080031 | 20 | 276 | 3.2 | 12.9 | 0.00 | 0.00 | 0.00 | 87 | 999.3 |
| 20260505075518 | 20 | 226 | 3.2 | 12.9 | 0.00 | 0.00 | 0.00 | 87 | 999.3 |
| 20260505075018 | 20 | 195 | 3.2 | 14.5 | 0.00 | 0.00 | 0.00 | 87 | 999.4 |
| 20260505074517 | 20 | 147 | 1.6 | 12.9 | 0.00 | 0.00 | 0.00 | 87 | 999.4 |
| 20260505074019 | 20 | 221 | 4.8 | 12.9 | 0.00 | 0.00 | 0.00 | 87 | 999.5 |
| 20260505073515 | 20 | 260 | 1.6 | 12.9 | 0.00 | 0.00 | 0.00 | 87 | 999.6 |
| 20260505073017 | 20 | 203 | 3.2 | 17.7 | 0.00 | 0.00 | 0.00 | 86 | 999.7 |
| 20260505072513 | 20 | 224 | 4.8 | 17.7 | 0.00 | 0.00 | 0.00 | 86 | 999.8 |
| 20260505072011 | 20 | 203 | 4.8 | 14.5 | 0.00 | 0.00 | 0.00 | 86 | 1000.0 |
| 20260505071511 | 20 | 164 | 6.4 | 16.1 | 0.00 | 0.00 | 0.00 | 86 | 1000.1 |
| 20260505071014 | 20 | 237 | 6.4 | 16.1 | 0.00 | 0.00 | 0.00 | 86 | 1000.2 |
| 20260505070510 | 20 | 255 | 4.8 | 17.7 | 0.00 | 0.00 | 0.00 | 85 | 1000.3 |
| 20260505070008 | 21 | 239 | 6.4 | 17.7 | 0.00 | 0.00 | 0.00 | 85 | 1000.2 |
| 20260505065508 | 21 | 196 | 4.8 | 20.9 | 0.00 | 0.00 | 0.00 | 85 | 1000.4 |
| 20260505065007 | 21 | 188 | 3.2 | 17.7 | 0.00 | 0.00 | 0.00 | 85 | 1000.4 |
| 20260505064507 | 21 | 207 | 6.4 | 17.7 | 0.00 | 0.00 | 0.00 | 84 | 1000.5 |
| 20260505064007 | 21 | 221 | 6.4 | 16.1 | 0.00 | 0.00 | 0.00 | 84 | 1000.7 |
| 20260505063505 | 21 | 291 | 4.8 | 20.9 | 0.00 | 0.00 | 0.00 | 84 | 1000.6 |
| 20260505063005 | 21 | 225 | 1.6 | 20.9 | 0.00 | 0.00 | 0.00 | 83 | 1000.6 |
| 20260505062504 | 21 | 237 | 6.4 | 17.7 | 0.00 | 0.00 | 0.00 | 83 | 1000.7 |
| 20260505062002 | 21 | 207 | 4.8 | 19.3 | 0.00 | 0.00 | 0.00 | 83 | 1000.7 |
| 20260505061503 | 21 | 229 | 8.0 | 19.3 | 0.00 | 0.00 | 0.00 | 83 | 1000.7 |
| 20260505061004 | 21 | 231 | 3.2 | 12.9 | 0.00 | 0.00 | 0.00 | 82 | 1000.6 |
| 20260505060501 | 21 | 207 | 4.8 | 14.5 | 0.00 | 0.00 | 0.00 | 82 | 1000.6 |
| 20260505060001 | 21 | 236 | 6.4 | 16.1 | 0.00 | 0.00 | 0.00 | 82 | 1000.6 |
| 20260505055600 | 21 | 239 | 4.8 | 16.1 | 0.00 | 0.00 | 0.00 | 82 | 1000.5 |
| 20260505055501 | 21 | 235 | 3.2 | 16.1 | 0.00 | 0.00 | 0.00 | 81 | 1000.5 |
| 20260505055103 | 21 | 224 | 4.8 | 16.1 | 0.00 | 0.00 | 0.00 | 81 | 1000.5 |
| 20260505054605 | 21 | 219 | 6.4 | 20.9 | 0.00 | 0.00 | 0.00 | 81 | 1000.4 |
| 20260505054059 | 21 | 208 | 6.4 | 20.9 | 0.00 | 0.00 | 0.00 | 81 | 1000.4 |
| 20260505053557 | 21 | 230 | 3.2 | 14.5 | 0.00 | 0.00 | 0.00 | 80 | 1000.5 |
| 20260505053110 | 21 | 250 | 1.6 | 14.5 | 0.00 | 0.00 | 0.00 | 80 | 1000.8 |
| 20260505052555 | 21 | 230 | 6.4 | 16.1 | 0.00 | 0.00 | 0.00 | 80 | 1000.9 |
| 20260505052055 | 21 | 177 | 4.8 | 16.1 | 0.00 | 0.00 | 0.00 | 80 | 1001.0 |
| 20260505051554 | 21 | 181 | 4.8 | 16.1 | 0.00 | 0.00 | 0.00 | 79 | 1000.9 |
| 20260505051052 | 22 | 205 | 4.8 | 16.1 | 0.00 | 0.00 | 0.00 | 79 | 1000.9 |
| 20260505050551 | 22 | 237 | 6.4 | 19.3 | 0.00 | 0.00 | 0.00 | 79 | 1001.0 |
| 20260505041610 | 22 | 237 | 4.8 | 17.7 | 0.00 | 0.00 | 0.00 | 78 | 1001.0 |
| 20260505041051 | 22 | 188 | 4.8 | 17.7 | 0.00 | 0.00 | 0.00 | 78 | 1001.0 |
| 20260505040550 | 22 | 155 | 3.2 | 17.7 | 0.00 | 0.00 | 0.00 | 78 | 1001.0 |
| 20260505040050 | 22 | 151 | 4.8 | 17.7 | 0.00 | 0.00 | 0.00 | 78 | 1000.9 |
| 20260505035552 | 22 | 232 | 6.4 | 17.7 | 0.00 | 0.00 | 0.00 | 78 | 1001.1 |
| 20260505035052 | 21 | 263 | 3.2 | 16.1 | 0.00 | 0.00 | 0.00 | 78 | 1000.9 |
| 20260505034549 | 21 | 243 | 4.8 | 12.9 | 0.00 | 0.00 | 0.00 | 78 | 1000.8 |
| 20260505034052 | 22 | 227 | 0.0 | 9.7 | 0.00 | 0.00 | 0.00 | 78 | 1000.6 |
| 20260505033549 | 22 | 179 | 1.6 | 12.9 | 0.00 | 0.00 | 0.00 | 78 | 1000.8 |
| 20260505033049 | 22 | 153 | 3.2 | 12.9 | 0.00 | 0.00 | 0.00 | 78 | 1000.8 |
| 20260505032552 | 22 | 212 | 1.6 | 11.3 | 0.00 | 0.00 | 0.00 | 78 | 1000.8 |
| 20260505032048 | 22 | 285 | 1.6 | 11.3 | 0.00 | 0.00 | 0.00 | 78 | 1000.8 |
| 20260505031553 | 22 | 187 | 1.6 | 11.3 | 0.00 | 0.00 | 0.00 | 78 | 1000.9 |
| 20260505031050 | 22 | 238 | 1.6 | 11.3 | 0.00 | 0.00 | 0.00 | 77 | 1001.1 |
| 20260505030548 | 22 | 200 | 1.6 | 12.9 | 0.00 | 0.00 | 0.00 | 77 | 1001.0 |
| 20260505030047 | 22 | 212 | 4.8 | 12.9 | 0.00 | 0.00 | 0.00 | 77 | 1001.0 |
| 20260505025547 | 22 | 205 | 3.2 | 11.3 | 0.00 | 0.00 | 0.00 | 77 | 1000.9 |
| 20260505025049 | 22 | 155 | 1.6 | 11.3 | 0.00 | 0.00 | 0.00 | 77 | 1001.0 |
| 20260505024548 | 22 | 189 | 3.2 | 8.0 | 0.00 | 0.00 | 0.00 | 76 | 1000.6 |
| 20260505024046 | 22 | 224 | 1.6 | 8.0 | 0.00 | 0.00 | 0.00 | 76 | 1000.6 |
| 20260505023546 | 22 | 243 | 1.6 | 9.7 | 0.00 | 0.00 | 0.00 | 76 | 1000.7 |
| 20260505023048 | 22 | 165 | 1.6 | 9.7 | 0.00 | 0.00 | 0.00 | 75 | 1000.5 |
| 20260505022548 | 22 | 239 | 1.6 | 11.3 | 0.00 | 0.00 | 0.00 | 75 | 1000.6 |
| 20260505022045 | 22 | 227 | 6.4 | 11.3 | 0.00 | 0.00 | 0.00 | 75 | 1000.5 |
| 20260505021547 | 22 | 225 | 3.2 | 8.0 | 0.00 | 0.00 | 0.00 | 75 | 1000.3 |
| 20260505021044 | 22 | 248 | 1.6 | 8.0 | 0.00 | 0.00 | 0.00 | 74 | 1000.6 |
| 20260505020545 | 22 | 253 | 3.2 | 11.3 | 0.00 | 0.00 | 0.00 | 74 | 1000.4 |
| 20260505020044 | 22 | 239 | 1.6 | 11.3 | 0.00 | 0.00 | 0.00 | 74 | 1000.4 |
| 20260505015546 | 22 | 235 | 3.2 | 9.7 | 0.00 | 0.00 | 0.00 | 73 | 1000.3 |
| 20260505015043 | 22 | 248 | 3.2 | 9.7 | 0.00 | 0.00 | 0.00 | 73 | 1000.5 |
| 20260505014545 | 22 | 225 | 1.6 | 6.4 | 0.00 | 0.00 | 0.00 | 72 | 1000.4 |
| 20260505014042 | 23 | 256 | 1.6 | 9.7 | 0.00 | 0.00 | 0.00 | 72 | 1000.5 |
| 20260505013542 | 23 | 260 | 1.6 | 11.3 | 0.00 | 0.00 | 0.00 | 71 | 1000.4 |
| 20260505013042 | 23 | 245 | 4.8 | 16.1 | 0.00 | 0.00 | 0.00 | 71 | 1000.3 |